createdAt,value
2023-05-20T13:18:04.583Z,55.67
2023-05-20T13:20:35.383Z,54.98
2023-05-20T13:23:03.101Z,54.98
2023-05-20T13:25:30.574Z,55.37
2023-05-20T13:27:58.225Z,55.29
2023-05-20T13:30:25.795Z,55.30
2023-05-20T13:32:53.314Z,55.29
2023-05-20T13:35:21.621Z,55.35
2023-05-20T13:37:49.320Z,55.90
2023-05-20T13:40:17.062Z,56.32
2023-05-20T13:42:44.516Z,56.54
2023-05-20T13:45:12.233Z,56.27
2023-05-20T13:47:39.777Z,56.67
2023-05-20T13:50:08.426Z,56.82
2023-05-20T13:52:35.946Z,56.26
2023-05-20T13:55:04.055Z,56.06
2023-05-20T13:57:31.317Z,55.05
2023-05-20T13:59:58.667Z,54.15
2023-05-20T14:02:26.245Z,53.21
2023-05-20T14:04:53.701Z,52.54
2023-05-20T14:07:21.358Z,52.52
2023-05-20T14:09:48.741Z,52.92
2023-05-20T14:12:16.234Z,52.91
2023-05-20T14:14:44.126Z,53.04
2023-05-20T14:17:16.593Z,53.00
2023-05-20T14:19:43.936Z,53.60
2023-05-20T14:22:11.256Z,54.35
2023-05-20T14:24:38.928Z,54.66
2023-05-20T14:27:06.400Z,54.46
2023-05-20T14:29:33.715Z,54.28
2023-05-20T14:32:01.267Z,54.42
2023-05-20T14:34:28.652Z,55.32
2023-05-20T14:36:55.969Z,55.99
2023-05-20T14:39:23.580Z,56.14
2023-05-20T14:41:51.051Z,56.17
2023-05-20T14:44:18.294Z,56.25
2023-05-20T14:46:45.693Z,56.25
2023-05-20T14:49:13.106Z,56.24
2023-05-20T14:51:40.482Z,55.92
2023-05-20T14:54:08.265Z,55.49
2023-05-20T14:56:35.621Z,55.29
2023-05-20T14:59:03.331Z,55.31
2023-05-20T15:01:30.783Z,54.92
2023-05-20T15:03:58.379Z,54.59
2023-05-20T15:06:26.336Z,54.05
2023-05-20T15:08:53.693Z,54.63
2023-05-20T15:11:20.981Z,54.67
2023-05-20T15:13:48.349Z,54.72
2023-05-20T15:16:16.004Z,54.63
2023-05-20T15:18:43.437Z,55.05
2023-05-20T15:21:10.701Z,55.29
2023-05-20T15:23:38.219Z,55.14
2023-05-20T15:26:07.260Z,55.02
2023-05-20T15:28:34.551Z,55.28
2023-05-20T15:31:01.858Z,55.33
2023-05-20T15:33:29.666Z,56.20
2023-05-20T15:35:57.111Z,56.57
2023-05-20T15:38:24.483Z,56.42
2023-05-20T15:40:51.785Z,56.17
2023-05-20T15:43:20.022Z,56.32
2023-05-20T15:45:47.439Z,56.08
2023-05-20T15:48:15.598Z,56.30
2023-05-20T15:50:43.368Z,56.17
2023-05-20T15:53:11.183Z,55.96
2023-05-20T15:55:38.776Z,55.90
2023-05-20T15:58:06.258Z,55.88
2023-05-20T16:00:33.989Z,56.31
2023-05-20T16:03:01.498Z,56.59
2023-05-20T16:05:29.015Z,56.62
2023-05-20T16:07:56.323Z,56.61
2023-05-20T16:10:25.880Z,56.80
2023-05-20T16:12:53.766Z,57.07
2023-05-20T16:15:21.186Z,57.28
2023-05-20T16:17:48.535Z,57.72
2023-05-20T16:20:15.991Z,57.88
2023-05-20T16:22:43.329Z,58.02
2023-05-20T16:25:10.762Z,58.31
2023-05-20T16:27:41.253Z,58.39
2023-05-20T16:30:14.461Z,58.13
2023-05-20T16:32:42.094Z,57.76
2023-05-20T16:35:09.902Z,57.77
2023-05-20T16:37:37.437Z,57.88
2023-05-20T16:40:06.158Z,57.83
2023-05-20T16:42:33.478Z,57.47
2023-05-20T16:45:00.796Z,57.82
2023-05-20T16:47:28.052Z,57.52
2023-05-20T16:49:55.377Z,57.85
2023-05-20T16:52:23.090Z,57.79
2023-05-20T16:54:50.371Z,57.99
2023-05-20T16:57:17.857Z,58.17
2023-05-20T16:59:46.017Z,58.21
2023-05-20T17:02:13.415Z,58.22
2023-05-20T17:04:40.985Z,58.10
2023-05-20T17:07:08.525Z,58.48
2023-05-20T17:09:36.645Z,58.47
2023-05-20T17:12:05.524Z,58.60
2023-05-20T17:14:33.285Z,58.61
2023-05-20T17:17:00.858Z,58.39
2023-05-20T17:19:39.546Z,58.44
2023-05-20T17:22:06.970Z,58.71
2023-05-20T17:24:35.947Z,58.46
2023-05-20T17:27:03.665Z,58.68
2023-05-20T17:29:31.765Z,58.86
2023-05-20T17:31:59.196Z,58.99
2023-05-20T17:34:26.559Z,59.25
2023-05-20T17:36:53.881Z,59.51
2023-05-20T17:39:21.249Z,59.69
2023-05-20T17:41:48.706Z,59.58
2023-05-20T17:44:17.057Z,59.70
2023-05-20T17:46:44.401Z,59.75
2023-05-20T17:49:11.792Z,59.96
2023-05-20T17:51:39.227Z,59.91
2023-05-20T17:54:06.660Z,60.06
2023-05-20T17:56:34.279Z,59.94
2023-05-20T17:59:01.665Z,60.03
2023-05-20T18:01:29.519Z,60.02
2023-05-20T18:03:57.308Z,60.19
2023-05-20T18:06:25.059Z,60.36
2023-05-20T18:08:52.460Z,60.49
2023-05-20T18:11:20.266Z,60.42
2023-05-20T18:13:47.637Z,60.67
2023-05-20T18:16:15.412Z,60.43
2023-05-20T18:18:44.080Z,60.69
2023-05-20T18:21:11.607Z,60.74
2023-05-20T18:23:39.089Z,60.80
2023-05-20T18:26:06.413Z,60.76
2023-05-20T18:28:33.734Z,60.52
2023-05-20T18:31:01.078Z,60.47
2023-05-20T18:33:28.837Z,60.50
2023-05-20T18:35:56.378Z,60.22
2023-05-20T18:38:23.886Z,60.41
2023-05-20T18:40:51.494Z,60.59
2023-05-20T18:43:18.826Z,60.74
2023-05-20T18:45:46.202Z,60.55
2023-05-20T18:48:20.147Z,60.38
2023-05-20T18:50:53.202Z,60.32
2023-05-20T18:53:20.926Z,60.33
2023-05-20T18:55:48.740Z,60.26
2023-05-20T18:58:16.062Z,60.27
2023-05-20T19:00:43.441Z,60.15
2023-05-20T19:03:11.164Z,60.45
2023-05-20T19:05:38.891Z,60.15
2023-05-20T19:08:06.592Z,60.61
2023-05-20T19:10:33.891Z,60.18
2023-05-20T19:13:01.259Z,60.03
2023-05-20T19:15:28.572Z,60.09
2023-05-20T19:17:56.902Z,60.12
2023-05-20T19:20:24.367Z,60.04
2023-05-20T19:22:52.349Z,59.99
2023-05-20T19:25:20.593Z,60.02
2023-05-20T19:27:48.218Z,60.37
2023-05-20T19:30:15.568Z,60.33
2023-05-20T19:32:42.969Z,60.71
2023-05-20T19:35:10.496Z,60.59
2023-05-20T19:37:37.884Z,60.68
2023-05-20T19:40:05.894Z,60.64
2023-05-20T19:42:33.381Z,60.55
2023-05-20T19:45:00.680Z,60.33
2023-05-20T19:47:28.058Z,60.38
2023-05-20T19:49:55.648Z,60.59
2023-05-20T19:52:23.368Z,60.69
2023-05-20T19:54:50.801Z,60.91
2023-05-20T19:57:18.130Z,61.06
2023-05-20T19:59:45.497Z,61.06
2023-05-20T20:02:12.774Z,60.84
2023-05-20T20:04:40.152Z,60.69
2023-05-20T20:07:07.707Z,60.62
2023-05-20T20:09:36.113Z,60.57
2023-05-20T20:12:03.805Z,60.74
2023-05-20T20:14:32.073Z,60.66
2023-05-20T20:16:59.874Z,60.83
2023-05-20T20:19:27.511Z,60.52
2023-05-20T20:21:55.603Z,60.68
2023-05-20T20:24:23.648Z,60.58
2023-05-20T20:26:52.453Z,60.54
2023-05-20T20:29:22.878Z,60.55
2023-05-20T20:31:50.231Z,60.24
2023-05-20T20:34:17.809Z,60.52
2023-05-20T20:36:46.431Z,60.58
2023-05-20T20:39:14.726Z,60.55
2023-05-20T20:41:42.050Z,60.30
2023-05-20T20:44:09.411Z,60.63
2023-05-20T20:46:36.717Z,60.87
2023-05-20T20:49:04.246Z,60.74
2023-05-20T20:51:31.578Z,60.81
2023-05-20T20:53:58.859Z,60.80
2023-05-20T20:56:26.381Z,60.80
2023-05-20T20:58:53.719Z,60.95
2023-05-20T21:01:21.187Z,60.78
2023-05-20T21:03:48.693Z,61.09
2023-05-20T21:06:16.367Z,61.23
2023-05-20T21:08:43.666Z,61.13
2023-05-20T21:11:11.337Z,61.13
2023-05-20T21:13:39.592Z,60.91
2023-05-20T21:16:07.271Z,61.07
2023-05-20T21:18:35.116Z,60.84
2023-05-20T21:21:02.382Z,61.06
2023-05-20T21:23:29.691Z,60.84
2023-05-20T21:25:56.949Z,60.71
2023-05-20T21:28:24.862Z,60.80
2023-05-20T21:30:52.143Z,60.77
2023-05-20T21:33:19.506Z,60.81
2023-05-20T21:35:47.004Z,60.68
2023-05-20T21:38:14.559Z,60.80
2023-05-20T21:40:42.205Z,60.78
2023-05-20T21:43:09.586Z,60.73
2023-05-20T21:45:37.364Z,60.86
2023-05-20T21:48:05.445Z,60.82
2023-05-20T21:50:32.771Z,60.82
2023-05-20T21:53:00.121Z,60.86
2023-05-20T21:55:27.525Z,60.93
2023-05-20T21:57:54.875Z,60.92
2023-05-20T22:00:22.202Z,61.03
2023-05-20T22:02:49.735Z,60.91
2023-05-20T22:05:17.331Z,61.08
2023-05-20T22:07:44.647Z,61.04
2023-05-20T22:10:12.375Z,60.87
2023-05-20T22:12:44.036Z,61.18
2023-05-20T22:15:11.923Z,61.05
2023-05-20T22:17:39.797Z,61.28
2023-05-20T22:20:08.247Z,61.38
2023-05-20T22:22:35.577Z,61.23
2023-05-20T22:25:03.929Z,61.13
2023-05-20T22:27:32.041Z,61.00
2023-05-20T22:29:59.405Z,61.09
2023-05-20T22:32:26.848Z,61.19
2023-05-20T22:34:54.573Z,61.25
2023-05-20T22:37:21.917Z,61.20
2023-05-20T22:39:49.269Z,61.08
2023-05-20T22:42:16.524Z,61.07
2023-05-20T22:44:43.785Z,60.97
2023-05-20T22:47:11.185Z,61.30
2023-05-20T22:49:38.507Z,61.32
2023-05-20T22:52:06.806Z,61.25
2023-05-20T22:54:37.076Z,61.28
2023-05-20T22:57:04.863Z,61.20
2023-05-20T22:59:32.328Z,61.20
2023-05-20T23:01:59.763Z,61.21
2023-05-20T23:04:27.059Z,61.37
2023-05-20T23:06:54.414Z,61.31
2023-05-20T23:09:21.731Z,61.22
2023-05-20T23:11:49.097Z,61.29
2023-05-20T23:14:16.410Z,61.25
2023-05-20T23:16:43.840Z,61.40
2023-05-20T23:19:11.528Z,61.43
2023-05-20T23:21:38.961Z,61.35
2023-05-20T23:24:06.827Z,61.47
2023-05-20T23:26:34.196Z,61.29
2023-05-20T23:29:01.673Z,61.43
2023-05-20T23:31:29.000Z,61.17
2023-05-20T23:33:56.784Z,61.55
2023-05-20T23:36:25.524Z,61.80
2023-05-20T23:38:53.232Z,61.49
2023-05-20T23:41:20.788Z,62.01
2023-05-20T23:43:48.365Z,62.00
2023-05-20T23:46:15.915Z,61.74
2023-05-20T23:48:43.269Z,61.96
2023-05-20T23:51:11.306Z,61.78
2023-05-20T23:53:38.510Z,62.05
2023-05-20T23:56:06.134Z,61.69
2023-05-20T23:58:34.210Z,61.63
